createdAt,value
2018-11-12T00:01:03.815Z,4.10
2018-11-12T00:03:31.883Z,3.60
2018-11-12T00:05:59.953Z,3.70
2018-11-12T00:08:28.007Z,3.40
2018-11-12T00:10:56.070Z,3.80
2018-11-12T00:13:24.135Z,3.87
2018-11-12T00:15:52.194Z,4.00
2018-11-12T00:18:20.286Z,3.90
2018-11-12T00:20:48.362Z,3.83
2018-11-12T00:23:16.444Z,4.40
2018-11-12T00:25:44.526Z,4.17
2018-11-12T00:28:12.594Z,4.40
2018-11-12T00:30:40.655Z,4.67
2018-11-12T00:33:08.717Z,4.63
2018-11-12T00:35:36.770Z,4.90
2018-11-12T00:38:05.403Z,5.03
2018-11-12T00:40:33.485Z,5.40
2018-11-12T00:43:01.547Z,4.70
2018-11-12T00:45:29.595Z,5.03
2018-11-12T00:47:57.658Z,5.13
2018-11-12T00:50:25.730Z,5.07
2018-11-12T00:52:53.787Z,5.23
2018-11-12T00:55:21.843Z,4.63
2018-11-12T00:57:49.910Z,5.17
2018-11-12T01:00:19.295Z,5.30
2018-11-12T01:02:48.490Z,4.83
2018-11-12T01:05:17.286Z,5.30
2018-11-12T01:07:45.788Z,5.37
2018-11-12T01:10:14.880Z,5.43
2018-11-12T01:12:43.567Z,5.47
2018-11-12T01:15:13.079Z,5.63
2018-11-12T01:17:41.451Z,5.37
2018-11-12T01:20:10.728Z,4.87
2018-11-12T01:22:38.814Z,4.90
2018-11-12T01:25:07.794Z,4.93
2018-11-12T01:27:35.887Z,4.80
2018-11-12T01:30:04.722Z,5.77
2018-11-12T01:32:32.785Z,5.03
2018-11-12T01:35:00.846Z,5.30
2018-11-12T01:37:28.916Z,5.57
2018-11-12T01:39:56.987Z,5.10
2018-11-12T01:42:25.059Z,5.67
2018-11-12T01:44:53.139Z,5.00
2018-11-12T01:47:21.207Z,5.00
2018-11-12T01:49:49.286Z,5.07
2018-11-12T01:52:17.382Z,5.00
2018-11-12T01:54:45.435Z,4.80
2018-11-12T01:57:13.506Z,5.10
2018-11-12T01:59:41.582Z,5.00
2018-11-12T02:02:09.679Z,4.90
2018-11-12T02:04:37.789Z,4.80
2018-11-12T02:07:06.044Z,5.30
2018-11-12T02:09:34.096Z,5.43
2018-11-12T02:12:02.163Z,5.60
2018-11-12T02:14:30.316Z,5.53
2018-11-12T02:16:58.344Z,5.77
2018-11-12T02:19:26.400Z,5.87
2018-11-12T02:21:54.531Z,5.80
2018-11-12T02:24:22.594Z,6.67
2018-11-12T02:26:50.660Z,6.20
2018-11-12T02:29:18.722Z,6.00
2018-11-12T02:31:46.802Z,5.93
2018-11-12T02:34:15.012Z,5.60
2018-11-12T02:36:43.082Z,6.20
2018-11-12T02:39:11.397Z,5.73
2018-11-12T02:41:39.775Z,6.07
2018-11-12T02:44:08.550Z,6.17
2018-11-12T02:46:37.171Z,6.23
2018-11-12T02:49:05.278Z,5.80
2018-11-12T02:51:33.326Z,5.50
2018-11-12T02:54:02.507Z,5.93
2018-11-12T02:56:30.586Z,5.23
2018-11-12T02:58:58.655Z,6.43
2018-11-12T03:01:26.728Z,6.30
2018-11-12T03:03:54.859Z,6.27
2018-11-12T03:06:23.038Z,5.40
2018-11-12T03:08:51.098Z,5.60
2018-11-12T03:11:19.148Z,5.80
2018-11-12T03:13:47.247Z,5.53
2018-11-12T03:16:15.344Z,5.57
2018-11-12T03:18:43.410Z,5.70
2018-11-12T03:21:11.571Z,5.10
2018-11-12T03:23:39.654Z,5.10
2018-11-12T03:26:07.715Z,4.60
2018-11-12T03:28:35.766Z,4.87
2018-11-12T03:31:03.841Z,4.73
2018-11-12T03:33:31.895Z,4.23
2018-11-12T03:35:59.970Z,4.50
2018-11-12T03:38:28.042Z,4.67
2018-11-12T03:40:56.123Z,5.10
2018-11-12T03:43:24.233Z,4.80
2018-11-12T03:45:52.314Z,4.70
2018-11-12T03:48:20.386Z,4.63
2018-11-12T03:50:48.479Z,4.70
2018-11-12T03:53:16.559Z,4.63
2018-11-12T03:55:44.846Z,4.90
2018-11-12T03:58:12.930Z,4.93
2018-11-12T04:00:40.999Z,4.50
2018-11-12T04:03:09.086Z,4.40
2018-11-12T04:05:37.170Z,4.43
2018-11-12T04:08:05.235Z,5.03
2018-11-12T04:10:33.331Z,4.33
2018-11-12T04:13:01.394Z,4.67
2018-11-12T04:15:29.483Z,4.53
2018-11-12T04:17:57.567Z,5.50
2018-11-12T04:20:25.926Z,4.70
2018-11-12T04:22:59.451Z,5.40
2018-11-12T04:25:27.545Z,5.20
2018-11-12T04:27:55.616Z,5.97
2018-11-12T04:30:23.662Z,6.00
2018-11-12T04:32:51.755Z,6.37
2018-11-12T04:35:19.819Z,6.77
2018-11-12T04:37:47.887Z,6.80
2018-11-12T04:40:17.152Z,5.83
2018-11-12T04:42:45.522Z,6.53
2018-11-12T04:45:15.652Z,7.17
2018-11-12T04:47:44.459Z,6.77
2018-11-12T04:50:14.867Z,6.80
2018-11-12T04:52:42.984Z,7.00
2018-11-12T04:55:12.650Z,7.00
2018-11-12T04:57:41.323Z,7.10
2018-11-12T05:00:13.391Z,6.40
2018-11-12T05:02:41.486Z,6.60
2018-11-12T05:05:11.274Z,6.77
2018-11-12T05:07:39.409Z,6.00
2018-11-12T05:10:09.582Z,5.60
2018-11-12T05:12:38.150Z,5.43
2018-11-12T05:15:07.927Z,5.60
2018-11-12T05:17:36.344Z,5.57
2018-11-12T05:20:04.704Z,4.93
2018-11-12T05:22:32.776Z,4.63
2018-11-12T05:25:00.845Z,4.63
2018-11-12T05:27:29.022Z,4.80
2018-11-12T05:29:57.123Z,3.80
2018-11-12T05:32:25.195Z,4.00
2018-11-12T05:34:53.270Z,3.80
2018-11-12T05:37:21.370Z,3.83
2018-11-12T05:39:49.423Z,3.17
2018-11-12T05:42:17.518Z,3.30
2018-11-12T05:44:45.606Z,4.43
2018-11-12T05:47:13.667Z,4.63
2018-11-12T05:49:41.746Z,3.30
2018-11-12T05:52:09.822Z,3.37
2018-11-12T05:54:37.899Z,3.57
2018-11-12T05:57:05.947Z,3.57
2018-11-12T05:59:34.019Z,3.30
2018-11-12T06:02:02.087Z,3.70
2018-11-12T06:04:30.147Z,3.60
2018-11-12T06:06:58.242Z,3.47
2018-11-12T06:09:26.319Z,3.73
2018-11-12T06:11:54.386Z,3.70
2018-11-12T06:14:22.468Z,4.20
2018-11-12T06:16:50.550Z,4.17
2018-11-12T06:19:18.611Z,4.00
2018-11-12T06:21:46.695Z,3.87
2018-11-12T06:24:14.747Z,4.37
2018-11-12T06:26:42.825Z,4.20
2018-11-12T06:29:10.892Z,4.60
2018-11-12T06:31:39.426Z,4.50
2018-11-12T06:34:07.532Z,4.10
2018-11-12T06:36:35.606Z,4.37
2018-11-12T06:39:04.879Z,4.37
2018-11-12T06:41:32.935Z,4.23
2018-11-12T06:44:00.983Z,3.80
2018-11-12T06:46:29.031Z,4.53
2018-11-12T06:48:57.079Z,4.37
2018-11-12T06:51:25.143Z,5.20
2018-11-12T06:53:53.211Z,5.13
2018-11-12T06:56:21.327Z,5.30
2018-11-12T06:58:49.415Z,4.50
2018-11-12T07:01:17.467Z,4.30
2018-11-12T07:03:45.543Z,3.87
2018-11-12T07:06:13.671Z,4.03
2018-11-12T07:08:41.698Z,3.87
2018-11-12T07:11:09.763Z,3.90
2018-11-12T07:13:37.838Z,3.67
2018-11-12T07:16:06.004Z,4.03
2018-11-12T07:18:34.082Z,3.90
2018-11-12T07:21:02.157Z,4.50
2018-11-12T07:23:30.279Z,4.40
2018-11-12T07:25:58.363Z,4.13
2018-11-12T07:28:26.455Z,4.40
2018-11-12T07:30:54.585Z,4.40
2018-11-12T07:33:22.588Z,4.60
2018-11-12T07:35:50.686Z,4.37
2018-11-12T07:38:18.734Z,4.10
2018-11-12T07:40:46.808Z,4.30
2018-11-12T07:43:14.863Z,3.73
2018-11-12T07:45:42.973Z,3.60
2018-11-12T07:48:11.014Z,3.70
2018-11-12T07:50:39.096Z,3.43
2018-11-12T07:53:07.164Z,3.00
2018-11-12T07:55:35.236Z,3.13
2018-11-12T07:58:03.279Z,3.67
2018-11-12T08:00:33.591Z,3.00
2018-11-12T08:03:04.531Z,3.53
2018-11-12T08:05:32.814Z,3.00
2018-11-12T08:08:00.855Z,3.57
2018-11-12T08:10:28.934Z,3.23
2018-11-12T08:12:57.004Z,2.93
2018-11-12T08:15:25.064Z,3.30
2018-11-12T08:17:53.178Z,3.40
2018-11-12T08:20:22.584Z,3.73
2018-11-12T08:22:51.375Z,4.20
2018-11-12T08:25:19.443Z,4.50
2018-11-12T08:27:47.920Z,4.00
2018-11-12T08:30:17.609Z,4.00
2018-11-12T08:32:46.642Z,4.67
2018-11-12T08:35:15.111Z,4.20
2018-11-12T08:37:43.383Z,4.23
2018-11-12T08:40:13.704Z,4.47
2018-11-12T08:42:42.096Z,3.70
2018-11-12T08:45:10.658Z,4.17
2018-11-12T08:47:39.450Z,4.27
2018-11-12T08:50:13.151Z,4.60
2018-11-12T08:52:42.271Z,4.93
2018-11-12T08:55:12.482Z,4.90
2018-11-12T08:57:41.588Z,4.93
2018-11-12T09:00:10.775Z,5.20
2018-11-12T09:02:38.910Z,4.57
2018-11-12T09:05:08.040Z,4.33
2018-11-12T09:07:36.314Z,4.10
2018-11-12T09:10:05.451Z,3.80
2018-11-12T09:12:33.436Z,4.60
2018-11-12T09:15:01.490Z,4.43
2018-11-12T09:17:29.579Z,4.30
2018-11-12T09:19:57.638Z,4.50
2018-11-12T09:22:25.728Z,4.57
2018-11-12T09:24:53.783Z,5.00
2018-11-12T09:27:21.835Z,4.17
2018-11-12T09:29:49.883Z,4.33
2018-11-12T09:32:17.955Z,4.07
2018-11-12T09:34:46.016Z,4.87
2018-11-12T09:37:14.102Z,4.27
2018-11-12T09:39:42.119Z,4.57
2018-11-12T09:42:10.190Z,3.90
2018-11-12T09:44:38.254Z,3.87
2018-11-12T09:47:06.299Z,3.97
2018-11-12T09:49:34.392Z,3.73
2018-11-12T09:52:02.431Z,3.60
2018-11-12T09:54:30.638Z,3.93
2018-11-12T09:56:58.567Z,3.87
2018-11-12T09:59:26.742Z,3.23
2018-11-12T10:01:55.162Z,3.63
2018-11-12T10:04:23.551Z,3.50
2018-11-12T10:06:52.479Z,3.03
2018-11-12T10:09:21.693Z,3.40
2018-11-12T10:11:48.582Z,3.33
2018-11-12T10:14:16.936Z,3.00
2018-11-12T10:16:45.826Z,3.60
2018-11-12T10:19:11.167Z,3.07
2018-11-12T10:21:39.235Z,3.07
2018-11-12T10:24:07.367Z,3.40
2018-11-12T10:26:35.430Z,3.63
2018-11-12T10:29:03.523Z,3.83
2018-11-12T10:31:31.563Z,3.90
2018-11-12T10:33:59.688Z,4.13
2018-11-12T10:36:27.707Z,4.00
2018-11-12T10:38:55.773Z,3.97
2018-11-12T10:41:23.831Z,4.07
2018-11-12T10:43:51.911Z,4.10
2018-11-12T10:46:19.971Z,4.00
2018-11-12T10:48:48.037Z,4.00
2018-11-12T10:51:16.150Z,4.17
2018-11-12T10:53:50.043Z,4.07
2018-11-12T10:56:12.273Z,4.00
2018-11-12T10:58:40.382Z,3.47
2018-11-12T11:01:13.847Z,4.13
2018-11-12T11:03:50.151Z,3.73
2018-11-12T11:06:18.226Z,3.70
2018-11-12T11:08:46.292Z,3.70
2018-11-12T11:11:14.355Z,4.00
2018-11-12T11:13:42.488Z,3.63
2018-11-12T11:16:10.499Z,4.13
2018-11-12T11:18:38.602Z,4.30
2018-11-12T11:21:06.737Z,3.60
2018-11-12T11:23:34.750Z,3.30
2018-11-12T11:26:02.815Z,3.50
2018-11-12T11:28:30.900Z,3.30
2018-11-12T11:30:59.042Z,3.33
2018-11-12T11:33:27.052Z,3.43
2018-11-12T11:35:55.096Z,3.30
2018-11-12T11:38:23.156Z,3.60
2018-11-12T11:40:51.284Z,7.17
2018-11-12T11:43:19.324Z,4.00
2018-11-12T11:45:47.374Z,4.50
2018-11-12T11:48:15.550Z,3.73
2018-11-12T11:50:43.554Z,3.40
2018-11-12T11:53:11.579Z,2.90
2018-11-12T11:55:39.630Z,3.90
2018-11-12T11:58:07.687Z,2.87
2018-11-12T12:00:35.742Z,2.87
2018-11-12T12:03:03.813Z,3.00
2018-11-12T12:05:31.871Z,3.23
2018-11-12T12:07:59.938Z,2.80
2018-11-12T12:10:28.008Z,2.97
2018-11-12T12:12:56.066Z,2.80
2018-11-12T12:15:24.652Z,3.50
2018-11-12T12:17:52.724Z,3.13
2018-11-12T12:20:22.939Z,3.13
2018-11-12T12:22:51.120Z,3.07
2018-11-12T12:25:19.654Z,3.37
2018-11-12T12:27:48.067Z,2.67
2018-11-12T12:30:18.690Z,2.73
2018-11-12T12:32:47.478Z,3.00
2018-11-12T12:35:15.655Z,2.80
2018-11-12T12:37:44.476Z,4.50
2018-11-12T12:40:13.846Z,2.60
2018-11-12T12:42:41.902Z,2.70
2018-11-12T12:45:11.691Z,3.40
2018-11-12T12:47:39.738Z,3.13
2018-11-12T12:50:09.207Z,3.30
2018-11-12T12:52:37.387Z,3.50
2018-11-12T12:55:06.280Z,3.23
2018-11-12T12:57:34.659Z,3.80
2018-11-12T13:00:03.034Z,3.97
2018-11-12T13:02:30.994Z,5.13
2018-11-12T13:04:59.112Z,5.30
2018-11-12T13:07:27.181Z,7.17
2018-11-12T13:09:55.230Z,8.53
2018-11-12T13:12:23.295Z,9.40
2018-11-12T13:14:51.573Z,11.40
2018-11-12T13:17:19.550Z,10.63
2018-11-12T13:19:47.670Z,8.80
2018-11-12T13:22:15.687Z,7.63
2018-11-12T13:24:43.771Z,7.43
2018-11-12T13:27:11.819Z,5.00
2018-11-12T13:29:39.988Z,4.80
2018-11-12T13:32:07.998Z,4.30
2018-11-12T13:34:36.139Z,4.00
2018-11-12T13:37:04.483Z,3.40
2018-11-12T13:39:32.596Z,3.37
2018-11-12T13:42:00.624Z,3.70
2018-11-12T13:44:28.702Z,3.63
2018-11-12T13:46:58.144Z,3.50
2018-11-12T13:49:26.191Z,3.17
2018-11-12T13:51:54.252Z,3.37
2018-11-12T13:54:22.303Z,3.40
2018-11-12T13:56:50.366Z,3.42
2018-11-12T13:59:18.410Z,3.33
2018-11-12T14:01:46.484Z,3.52
2018-11-12T14:04:14.546Z,3.58
2018-11-12T14:06:42.600Z,2.95
2018-11-12T14:09:11.447Z,3.17
2018-11-12T14:11:39.674Z,3.40
2018-11-12T14:14:07.994Z,3.65
2018-11-12T14:16:36.131Z,3.87
2018-11-12T14:19:04.543Z,3.60
2018-11-12T14:21:32.982Z,3.85
2018-11-12T14:24:00.868Z,3.47
2018-11-12T14:26:28.955Z,3.60
2018-11-12T14:28:57.084Z,3.95
2018-11-12T14:31:25.074Z,3.85
2018-11-12T14:33:53.144Z,3.52
2018-11-12T14:36:21.221Z,3.83
2018-11-12T14:38:49.492Z,4.03
2018-11-12T14:41:17.551Z,4.77
2018-11-12T14:43:45.626Z,4.60
2018-11-12T14:46:13.663Z,4.80
2018-11-12T14:48:41.763Z,4.87
2018-11-12T14:51:10.133Z,4.93
2018-11-12T14:53:38.115Z,4.83
2018-11-12T14:56:06.705Z,4.60
2018-11-12T14:58:34.772Z,4.00
2018-11-12T15:01:02.834Z,4.33
2018-11-12T15:03:30.910Z,4.10
2018-11-12T15:05:58.975Z,4.40
2018-11-12T15:08:27.027Z,4.57
2018-11-12T15:10:55.095Z,4.60
2018-11-12T15:13:23.310Z,4.30
2018-11-12T15:15:51.391Z,4.67
2018-11-12T15:18:19.455Z,4.77
2018-11-12T15:20:47.523Z,4.57
2018-11-12T15:23:15.605Z,4.60
2018-11-12T15:25:43.678Z,4.93
2018-11-12T15:28:11.747Z,4.97
2018-11-12T15:30:39.823Z,4.23
2018-11-12T15:33:07.895Z,5.17
2018-11-12T15:35:35.982Z,4.43
2018-11-12T15:38:04.055Z,5.33
2018-11-12T15:40:32.107Z,4.63
2018-11-12T15:43:00.237Z,5.03
2018-11-12T15:45:28.226Z,5.57
2018-11-12T15:47:56.314Z,5.73
2018-11-12T15:50:30.187Z,5.73
2018-11-12T15:52:58.262Z,5.23
2018-11-12T15:55:26.345Z,5.33
2018-11-12T15:57:54.652Z,5.50
2018-11-12T16:00:22.618Z,4.73
2018-11-12T16:02:50.679Z,5.10
2018-11-12T16:05:18.747Z,5.00
2018-11-12T16:07:46.827Z,5.73
2018-11-12T16:10:16.970Z,5.53
2018-11-12T16:12:45.039Z,5.23
2018-11-12T16:15:14.130Z,5.03
2018-11-12T16:17:42.238Z,4.83
2018-11-12T16:20:14.311Z,5.27
2018-11-12T16:22:42.739Z,5.07
2018-11-12T16:25:10.799Z,6.30
2018-11-12T16:27:38.995Z,5.93
2018-11-12T16:30:08.195Z,5.90
2018-11-12T16:32:36.394Z,6.17
2018-11-12T16:35:05.616Z,6.40
2018-11-12T16:37:33.675Z,5.90
2018-11-12T16:40:01.810Z,8.53
2018-11-12T16:42:29.843Z,11.03
2018-11-12T16:44:57.928Z,7.93
2018-11-12T16:47:26.406Z,6.43
2018-11-12T16:49:54.727Z,6.40
2018-11-12T16:52:22.827Z,5.80
2018-11-12T16:54:50.967Z,5.37
2018-11-12T16:57:19.051Z,4.40
2018-11-12T16:59:47.107Z,4.57
2018-11-12T17:02:15.206Z,5.17
2018-11-12T17:04:43.290Z,4.30
2018-11-12T17:07:11.410Z,3.83
2018-11-12T17:09:39.497Z,3.67
2018-11-12T17:12:07.847Z,4.50
2018-11-12T17:14:35.895Z,5.30
2018-11-12T17:17:03.963Z,5.37
2018-11-12T17:19:32.023Z,4.77
2018-11-12T17:22:00.099Z,5.10
2018-11-12T17:24:28.187Z,4.60
2018-11-12T17:26:56.266Z,5.23
2018-11-12T17:29:24.587Z,4.20
2018-11-12T17:31:53.479Z,3.67
2018-11-12T17:34:21.546Z,3.57
2018-11-12T17:36:49.622Z,3.70
2018-11-12T17:39:17.682Z,3.90
2018-11-12T17:41:45.747Z,3.77
2018-11-12T17:44:13.826Z,5.93
2018-11-12T17:46:41.913Z,3.83
2018-11-12T17:49:09.955Z,4.00
2018-11-12T17:51:38.030Z,4.37
2018-11-12T17:54:06.107Z,5.03
2018-11-12T17:56:34.234Z,6.30
2018-11-12T17:59:02.310Z,4.00
2018-11-12T18:01:30.401Z,5.77
2018-11-12T18:03:58.477Z,3.90
2018-11-12T18:06:26.526Z,4.60
2018-11-12T18:08:54.595Z,4.57
2018-11-12T18:11:22.638Z,3.53
2018-11-12T18:13:50.749Z,3.80
2018-11-12T18:16:18.802Z,3.87
2018-11-12T18:18:46.883Z,6.23
2018-11-12T18:21:14.950Z,22.23
2018-11-12T18:23:43.048Z,17.37
2018-11-12T18:26:11.126Z,8.37
2018-11-12T18:28:39.190Z,6.17
2018-11-12T18:31:07.432Z,5.80
2018-11-12T18:33:35.419Z,5.83
2018-11-12T18:36:03.531Z,5.23
2018-11-12T18:38:31.609Z,5.37
2018-11-12T18:40:59.705Z,4.87
2018-11-12T18:43:27.775Z,5.10
2018-11-12T18:45:55.851Z,5.53
2018-11-12T18:48:23.935Z,5.77
2018-11-12T18:50:52.037Z,5.57
2018-11-12T18:53:20.087Z,5.67
2018-11-12T18:55:48.192Z,5.57
2018-11-12T18:58:16.250Z,5.40
2018-11-12T19:00:44.329Z,5.50
2018-11-12T19:03:12.398Z,5.13
2018-11-12T19:05:40.450Z,5.10
2018-11-12T19:08:08.538Z,4.67
2018-11-12T19:10:36.639Z,4.87
2018-11-12T19:13:04.766Z,5.50
2018-11-12T19:15:34.687Z,5.13
2018-11-12T19:18:05.270Z,5.23
2018-11-12T19:20:33.383Z,5.20
2018-11-12T19:23:01.450Z,4.73
2018-11-12T19:25:29.511Z,5.47
2018-11-12T19:27:57.586Z,5.30
2018-11-12T19:30:26.853Z,5.60
2018-11-12T19:32:55.126Z,5.93
2018-11-12T19:35:24.526Z,5.67
2018-11-12T19:37:52.599Z,5.20
2018-11-12T19:40:21.990Z,5.77
2018-11-12T19:42:51.106Z,5.20
2018-11-12T19:45:19.178Z,6.40
2018-11-12T19:47:48.650Z,6.00
2018-11-12T19:50:17.979Z,6.27
2018-11-12T19:52:47.086Z,6.10
2018-11-12T19:55:15.467Z,6.23
2018-11-12T19:57:43.802Z,5.70
2018-11-12T20:00:14.070Z,5.60
2018-11-12T20:02:43.150Z,6.17
2018-11-12T20:05:11.450Z,6.20
2018-11-12T20:07:40.032Z,5.60
2018-11-12T20:10:10.601Z,5.90
2018-11-12T20:12:38.717Z,5.77
2018-11-12T20:15:07.396Z,5.40
2018-11-12T20:17:35.578Z,5.63
2018-11-12T20:20:04.117Z,5.80
2018-11-12T20:22:32.210Z,5.43
2018-11-12T20:25:00.311Z,5.37
2018-11-12T20:27:28.479Z,5.07
2018-11-12T20:29:56.610Z,5.70
2018-11-12T20:32:24.736Z,5.33
2018-11-12T20:34:52.890Z,5.23
2018-11-12T20:37:21.104Z,5.33
2018-11-12T20:39:49.236Z,5.07
2018-11-12T20:42:17.393Z,5.63
2018-11-12T20:44:45.562Z,5.90
2018-11-12T20:47:13.713Z,5.40
2018-11-12T20:49:41.803Z,5.50
2018-11-12T20:52:09.886Z,5.70
2018-11-12T20:54:37.946Z,5.17
2018-11-12T20:57:06.044Z,5.40
2018-11-12T20:59:34.122Z,5.60
2018-11-12T21:02:02.199Z,6.73
2018-11-12T21:04:30.287Z,7.73
2018-11-12T21:06:58.339Z,6.63
2018-11-12T21:09:26.407Z,6.17
2018-11-12T21:11:54.486Z,7.47
2018-11-12T21:14:22.591Z,6.03
2018-11-12T21:16:50.658Z,6.60
2018-11-12T21:19:18.757Z,5.83
2018-11-12T21:21:46.811Z,5.83
2018-11-12T21:24:14.878Z,5.53
2018-11-12T21:26:42.957Z,5.17
2018-11-12T21:29:11.088Z,5.80
2018-11-12T21:31:39.087Z,5.37
2018-11-12T21:34:07.143Z,5.90
2018-11-12T21:36:35.283Z,5.60
2018-11-12T21:39:03.652Z,4.63
2018-11-12T21:41:31.743Z,4.83
2018-11-12T21:43:59.821Z,4.70
2018-11-12T21:46:27.895Z,4.20
2018-11-12T21:48:55.959Z,5.30
2018-11-12T21:51:24.132Z,5.20
2018-11-12T21:53:52.197Z,5.00
2018-11-12T21:56:20.618Z,4.30
2018-11-12T21:58:48.824Z,5.30
2018-11-12T22:01:16.988Z,4.60
2018-11-12T22:03:45.051Z,3.73
2018-11-12T22:06:13.115Z,3.53
2018-11-12T22:08:41.335Z,3.63
2018-11-12T22:11:09.308Z,4.37
2018-11-12T22:13:37.382Z,3.80
2018-11-12T22:16:06.562Z,4.00
2018-11-12T22:18:34.628Z,4.40
2018-11-12T22:21:02.690Z,4.43
2018-11-12T22:23:30.747Z,4.70
2018-11-12T22:25:58.856Z,6.00
2018-11-12T22:28:26.898Z,4.90
2018-11-12T22:30:55.009Z,4.83
2018-11-12T22:33:23.102Z,5.57
2018-11-12T22:35:51.201Z,5.87
2018-11-12T22:38:19.250Z,5.80
2018-11-12T22:40:47.326Z,5.83
2018-11-12T22:43:15.404Z,5.97
2018-11-12T22:45:43.479Z,5.57
2018-11-12T22:48:11.531Z,4.83
2018-11-12T22:50:39.590Z,5.60
2018-11-12T22:53:07.642Z,5.30
2018-11-12T22:55:35.722Z,5.33
2018-11-12T22:58:03.807Z,5.90
2018-11-12T23:00:37.166Z,5.17
2018-11-12T23:03:05.971Z,4.80
2018-11-12T23:05:34.022Z,5.00
2018-11-12T23:08:02.123Z,5.77
2018-11-12T23:10:30.214Z,5.60
2018-11-12T23:12:58.254Z,5.90
2018-11-12T23:15:26.294Z,5.30
2018-11-12T23:17:54.351Z,5.97
2018-11-12T23:20:23.467Z,5.60
2018-11-12T23:22:51.937Z,5.60
2018-11-12T23:25:20.005Z,4.50
2018-11-12T23:27:48.696Z,4.93
2018-11-12T23:30:17.987Z,5.17
2018-11-12T23:32:46.034Z,5.10
2018-11-12T23:35:17.310Z,5.87
2018-11-12T23:37:45.907Z,5.20
2018-11-12T23:40:14.375Z,5.03
2018-11-12T23:42:43.071Z,5.40
2018-11-12T23:45:11.159Z,5.70
2018-11-12T23:47:39.506Z,5.03
2018-11-12T23:50:12.402Z,5.40
2018-11-12T23:52:40.502Z,4.93
2018-11-12T23:55:08.583Z,4.90
2018-11-12T23:57:36.642Z,4.50
